Time;durP1;ratioP1;P1;durP2;ratioP2;P2;SDS_P1;SDS_P2;PMS_P1;PMS_P2;Temp;Humidity;BMP_temperature;BMP_pressure;BME280_temperature;BME280_humidity;BME280_pressure;Samples;Min_cycle;Max_cycle;Signal;HPM_P1;HPM_P2
2022/04/15 00:02:09;;;;;;;2.90;2.08;;;11.70;99.90;;;;;;5077035;28;20410;-78
2022/04/15 00:04:35;;;;;;;5.03;2.10;;;11.50;99.90;;;;;;5081514;28;20028;-78
2022/04/15 00:07:02;;;;;;;2.20;1.75;;;11.40;99.90;;;;;;5085546;28;20086;-79
2022/04/15 00:09:28;;;;;;;3.78;2.17;;;11.30;99.90;;;;;;5077550;28;20027;-79
2022/04/15 00:11:55;;;;;;;2.63;2.05;;;11.30;99.90;;;;;;5070409;28;20077;-79
2022/04/15 00:14:22;;;;;;;2.55;1.58;;;11.30;99.90;;;;;;5074900;28;20028;-79
2022/04/15 00:16:48;;;;;;;3.60;2.15;;;11.30;99.90;;;;;;5076311;28;20036;-79
2022/04/15 00:19:14;;;;;;;2.92;2.17;;;11.30;99.90;;;;;;5079843;28;20021;-79
2022/04/15 00:21:40;;;;;;;2.78;2.00;;;11.40;99.90;;;;;;5082453;28;20027;-79
2022/04/15 00:24:06;;;;;;;1.90;1.70;;;11.40;99.90;;;;;;5075326;28;20028;-79
2022/04/15 00:26:32;;;;;;;2.70;2.15;;;11.30;99.90;;;;;;5078747;28;20166;-79
2022/04/15 00:28:58;;;;;;;2.47;1.85;;;11.10;99.90;;;;;;5082827;28;20115;-79
2022/04/15 00:31:24;;;;;;;3.33;2.15;;;11.20;99.90;;;;;;5072501;28;20583;-79
2022/04/15 00:33:49;;;;;;;3.65;2.40;;;11.20;99.90;;;;;;5080065;28;20089;-79
2022/04/15 00:36:15;;;;;;;3.72;2.00;;;11.20;99.90;;;;;;5081738;28;20045;-79
2022/04/15 00:38:41;;;;;;;2.50;1.88;;;11.20;99.90;;;;;;5076349;28;20508;-79
2022/04/15 00:41:14;;;;;;;3.72;1.98;;;11.10;99.90;;;;;;5068969;28;20033;-79
2022/04/15 00:43:39;;;;;;;1.80;1.70;;;11.20;99.90;;;;;;5081481;28;20050;-79
2022/04/15 00:46:07;;;;;;;3.47;2.30;;;11.30;99.90;;;;;;5073852;28;20483;-79
2022/04/15 00:48:34;;;;;;;3.42;1.90;;;11.10;99.90;;;;;;5090669;28;20034;-79
2022/04/15 00:51:00;;;;;;;1.85;1.75;;;11.10;99.90;;;;;;5082676;28;20115;-79
2022/04/15 00:53:29;;;;;;;2.33;1.90;;;11.00;99.90;;;;;;5078287;28;20541;-79
2022/04/15 00:56:01;;;;;;;2.25;1.83;;;11.00;99.90;;;;;;5075364;28;20048;-79
2022/04/15 00:58:30;;;;;;;3.95;2.10;;;11.00;99.90;;;;;;5080881;28;20040;-79
2022/04/15 01:00:58;;;;;;;4.65;2.42;;;10.80;99.90;;;;;;5088910;28;20032;-79
2022/04/15 01:03:24;;;;;;;5.15;2.40;;;10.70;99.90;;;;;;5081368;28;20038;-79
2022/04/15 01:05:55;;;;;;;2.45;1.90;;;10.80;99.90;;;;;;5083618;28;20056;-79
2022/04/15 01:08:23;;;;;;;2.60;2.30;;;10.70;99.90;;;;;;5086885;28;20073;-79
2022/04/15 01:10:52;;;;;;;2.97;1.85;;;10.70;99.90;;;;;;5060252;28;20044;-79
2022/04/15 01:13:20;;;;;;;2.30;2.10;;;10.70;99.90;;;;;;5077401;28;20039;-79
2022/04/15 01:15:47;;;;;;;2.55;2.05;;;10.60;99.90;;;;;;5075417;28;20091;-79
2022/04/15 01:18:12;;;;;;;4.28;2.58;;;10.50;99.90;;;;;;5076579;28;20120;-79
2022/04/15 01:20:40;;;;;;;3.83;2.20;;;10.70;99.90;;;;;;5065854;28;20091;-79
2022/04/15 01:23:11;;;;;;;2.35;1.92;;;10.60;99.90;;;;;;5082430;28;20056;-79
2022/04/15 01:25:37;;;;;;;3.03;2.22;;;10.60;99.90;;;;;;5084647;28;20085;-79
2022/04/15 01:28:04;;;;;;;4.30;2.22;;;10.70;99.90;;;;;;5070285;28;20438;-79
2022/04/15 01:30:29;;;;;;;2.97;1.90;;;10.70;99.90;;;;;;5080618;28;20094;-79
2022/04/15 01:32:55;;;;;;;2.25;1.80;;;10.80;99.90;;;;;;5078824;28;20509;-79
2022/04/15 01:35:21;;;;;;;5.32;2.08;;;10.80;99.90;;;;;;5067975;28;20020;-79
2022/04/15 01:37:48;;;;;;;4.07;1.77;;;10.70;99.90;;;;;;5080991;28;20122;-79
2022/04/15 01:40:16;;;;;;;2.85;2.30;;;10.70;99.90;;;;;;5085155;28;20570;-79
2022/04/15 01:42:44;;;;;;;3.42;2.05;;;10.70;99.90;;;;;;5080852;28;20055;-79
2022/04/15 01:45:10;;;;;;;3.83;2.25;;;10.70;99.90;;;;;;5085532;28;20059;-80
2022/04/15 01:47:36;;;;;;;3.40;2.20;;;10.70;99.90;;;;;;5084110;28;20586;-79
2022/04/15 01:50:06;;;;;;;2.75;2.10;;;10.50;99.90;;;;;;5078305;28;20028;-79
2022/04/15 01:52:32;;;;;;;1.70;1.60;;;10.30;99.90;;;;;;5089841;28;20070;-79
2022/04/15 01:54:59;;;;;;;3.08;2.28;;;10.30;99.90;;;;;;5090178;28;20142;-79
2022/04/15 01:57:24;;;;;;;2.72;1.75;;;10.10;99.90;;;;;;5086491;28;20143;-79
2022/04/15 01:59:50;;;;;;;2.72;2.03;;;9.90;99.90;;;;;;5082820;28;20541;-79
2022/04/15 02:02:16;;;;;;;5.10;2.28;;;9.90;99.90;;;;;;5082422;28;20403;-79
2022/04/15 02:04:42;;;;;;;2.72;2.17;;;9.80;99.90;;;;;;5083597;28;20033;-79
2022/04/15 02:07:08;;;;;;;3.10;1.90;;;9.80;99.90;;;;;;5086067;28;20050;-79
2022/04/15 02:09:34;;;;;;;3.47;2.38;;;9.90;99.90;;;;;;5078923;28;20452;-79
2022/04/15 02:12:00;;;;;;;3.40;2.83;;;10.30;99.90;;;;;;5079943;28;20490;-79
2022/04/15 02:14:26;;;;;;;4.25;2.50;;;10.60;99.90;;;;;;5088781;28;20032;-79
2022/04/15 02:16:53;;;;;;;5.47;3.00;;;10.80;99.90;;;;;;5081566;28;20027;-79
2022/04/15 02:19:20;;;;;;;5.53;2.92;;;11.00;99.90;;;;;;5067736;28;20176;-79
2022/04/15 02:21:47;;;;;;;4.43;2.75;;;11.00;99.90;;;;;;5066956;28;20013;-79
2022/04/15 02:24:14;;;;;;;4.47;2.80;;;11.00;99.90;;;;;;5086323;28;20083;-79
2022/04/15 02:26:40;;;;;;;5.57;2.67;;;10.80;99.90;;;;;;5078744;28;20493;-79
2022/04/15 02:29:05;;;;;;;5.50;3.00;;;10.80;99.90;;;;;;5072465;28;20045;-79
2022/04/15 02:31:31;;;;;;;4.53;2.60;;;10.90;99.90;;;;;;5057983;28;20067;-79
2022/04/15 02:33:57;;;;;;;2.97;2.30;;;11.00;99.90;;;;;;5083598;28;20568;-79
2022/04/15 02:36:22;;;;;;;2.30;2.00;;;11.00;99.90;;;;;;5084472;28;20166;-79
2022/04/15 02:38:48;;;;;;;4.45;2.10;;;10.80;99.90;;;;;;5073927;28;20520;-79
2022/04/15 02:41:14;;;;;;;2.70;2.10;;;10.90;99.90;;;;;;5079792;28;20035;-79
2022/04/15 02:43:40;;;;;;;4.20;2.47;;;10.90;99.90;;;;;;5086096;28;20107;-79
2022/04/15 02:46:09;;;;;;;3.03;2.55;;;10.80;99.90;;;;;;5057105;28;20029;-78
2022/04/15 02:48:35;;;;;;;2.33;2.10;;;10.80;99.90;;;;;;5075355;28;20040;-79
2022/04/15 02:51:01;;;;;;;2.80;1.98;;;10.90;99.90;;;;;;5072803;28;20032;-79
2022/04/15 02:53:27;;;;;;;4.07;2.63;;;10.90;99.90;;;;;;5076160;28;20029;-79
2022/04/15 02:55:53;;;;;;;2.83;2.25;;;10.70;99.90;;;;;;5074646;28;20537;-79
2022/04/15 02:58:20;;;;;;;5.25;3.38;;;10.80;99.90;;;;;;5080105;28;20032;-79
2022/04/15 03:00:46;;;;;;;6.75;3.20;;;10.90;99.90;;;;;;5082827;28;20027;-79
2022/04/15 03:03:12;;;;;;;5.63;3.42;;;11.00;99.90;;;;;;5085159;28;20044;-79
2022/04/15 03:05:39;;;;;;;5.03;3.38;;;11.10;99.90;;;;;;5084812;28;20481;-79
2022/04/15 03:08:05;;;;;;;5.38;3.17;;;11.20;99.90;;;;;;5069500;28;20456;-80
2022/04/15 03:10:31;;;;;;;7.57;4.05;;;11.30;99.90;;;;;;5058399;28;20059;-79
2022/04/15 03:12:56;;;;;;;6.80;4.28;;;11.30;99.90;;;;;;5073932;28;20539;-79
2022/04/15 03:15:22;;;;;;;4.68;3.58;;;11.40;99.90;;;;;;5083717;28;20557;-79
2022/04/15 03:17:48;;;;;;;6.72;3.55;;;11.40;99.90;;;;;;5078615;28;20382;-79
2022/04/15 03:20:14;;;;;;;5.38;3.80;;;11.50;99.90;;;;;;5079157;28;20028;-78
2022/04/15 03:22:42;;;;;;;4.20;3.25;;;11.50;99.90;;;;;;5068979;28;20016;-79
2022/04/15 03:25:12;;;;;;;7.43;4.47;;;11.50;99.90;;;;;;5088898;28;20024;-79
2022/04/15 03:27:38;;;;;;;8.93;4.05;;;11.50;99.90;;;;;;5069969;28;20036;-78
2022/04/15 03:30:05;;;;;;;9.18;3.42;;;11.50;99.90;;;;;;5082339;28;20032;-79
2022/04/15 03:32:31;;;;;;;5.97;3.47;;;11.50;99.90;;;;;;5079916;28;20037;-79
2022/04/15 03:34:58;;;;;;;7.72;4.22;;;11.50;99.90;;;;;;5074843;28;20063;-79
2022/04/15 03:37:24;;;;;;;5.18;3.10;;;11.60;99.90;;;;;;5063376;28;20021;-79
2022/04/15 03:39:51;;;;;;;12.55;4.50;;;11.60;99.90;;;;;;5082369;28;20080;-79
2022/04/15 03:42:17;;;;;;;8.05;3.67;;;11.60;99.90;;;;;;5061313;28;20021;-79
2022/04/15 03:44:43;;;;;;;7.93;4.35;;;11.60;99.90;;;;;;5066932;28;20036;-79
2022/04/15 03:47:09;;;;;;;8.07;3.78;;;11.60;99.90;;;;;;5059943;28;20441;-79
2022/04/15 03:49:35;;;;;;;12.13;4.28;;;11.60;99.90;;;;;;5074704;28;20038;-79
2022/04/15 03:52:01;;;;;;;13.10;5.50;;;11.60;99.90;;;;;;5060878;28;20025;-79
2022/04/15 03:54:27;;;;;;;9.10;4.50;;;11.60;99.90;;;;;;5081044;28;21643;-79
2022/04/15 03:56:52;;;;;;;10.25;4.53;;;11.60;99.90;;;;;;5071087;28;20509;-79
2022/04/15 03:59:18;;;;;;;8.27;4.35;;;11.60;99.90;;;;;;5079284;28;20020;-79
2022/04/15 04:01:44;;;;;;;10.60;5.32;;;11.60;99.90;;;;;;5084195;28;20103;-79
2022/04/15 04:04:10;;;;;;;9.93;4.63;;;11.60;99.90;;;;;;5088657;28;20027;-79
2022/04/15 04:06:36;;;;;;;8.25;4.60;;;11.60;99.90;;;;;;5074960;28;20536;-79
2022/04/15 04:09:02;;;;;;;11.82;5.93;;;11.60;99.90;;;;;;5081396;28;20566;-79
2022/04/15 04:11:28;;;;;;;10.32;5.20;;;11.60;99.90;;;;;;5068128;28;20024;-79
2022/04/15 04:13:54;;;;;;;11.45;6.18;;;11.60;99.90;;;;;;5078383;28;20505;-79
2022/04/15 04:16:19;;;;;;;7.97;5.20;;;11.60;99.90;;;;;;5079495;28;20059;-79
2022/04/15 04:18:46;;;;;;;7.20;4.53;;;11.50;99.90;;;;;;5086239;28;20216;-80
2022/04/15 04:21:12;;;;;;;9.23;5.50;;;11.40;99.90;;;;;;5065752;28;20071;-79
2022/04/15 04:23:38;;;;;;;7.40;4.70;;;11.40;99.90;;;;;;5062648;28;20024;-79
2022/04/15 04:26:05;;;;;;;8.60;4.90;;;11.40;99.90;;;;;;5068460;28;20119;-79
2022/04/15 04:28:32;;;;;;;6.95;4.40;;;11.30;99.90;;;;;;5073977;28;20021;-79
2022/04/15 04:30:58;;;;;;;8.80;4.45;;;11.30;99.90;;;;;;5062978;28;20067;-79
2022/04/15 04:33:24;;;;;;;7.35;4.15;;;11.30;99.90;;;;;;5072608;28;20028;-79
2022/04/15 04:35:50;;;;;;;6.50;4.78;;;11.20;99.90;;;;;;5077935;28;20029;-79
2022/04/15 04:38:17;;;;;;;5.03;4.13;;;11.20;99.90;;;;;;5075517;28;20040;-79
2022/04/15 04:40:43;;;;;;;11.07;5.05;;;11.20;99.90;;;;;;5080032;28;20491;-79
2022/04/15 04:43:10;;;;;;;6.80;4.53;;;11.20;99.90;;;;;;5065085;28;20033;-79
2022/04/15 04:45:36;;;;;;;6.22;4.32;;;11.20;99.90;;;;;;5078137;28;20037;-79
2022/04/15 04:48:03;;;;;;;7.75;4.85;;;11.20;99.90;;;;;;5081839;28;20509;-79
2022/04/15 04:50:30;;;;;;;8.65;4.50;;;11.10;99.90;;;;;;5078123;28;20038;-79
2022/04/15 04:52:56;;;;;;;8.55;4.47;;;11.10;99.90;;;;;;5075608;28;20033;-79
2022/04/15 04:55:22;;;;;;;7.57;4.43;;;11.10;99.90;;;;;;5081282;28;20049;-79
2022/04/15 04:57:49;;;;;;;7.35;4.75;;;11.10;99.90;;;;;;5077514;28;20028;-79
2022/04/15 05:00:16;;;;;;;9.07;4.60;;;11.00;99.90;;;;;;5081730;28;20020;-79
2022/04/15 05:02:43;;;;;;;7.40;4.65;;;11.00;99.90;;;;;;5071413;28;20065;-79
2022/04/15 05:05:09;;;;;;;5.20;4.00;;;11.00;99.90;;;;;;5073671;28;20111;-79
2022/04/15 05:07:35;;;;;;;5.70;4.20;;;11.00;99.90;;;;;;5074773;28;20055;-79
2022/04/15 05:10:01;;;;;;;8.60;4.75;;;11.00;99.90;;;;;;5079652;28;20048;-79
2022/04/15 05:12:27;;;;;;;6.30;4.55;;;11.00;99.90;;;;;;5071930;28;20509;-79
2022/04/15 05:14:53;;;;;;;9.35;4.80;;;11.00;99.90;;;;;;5071627;28;20116;-79
2022/04/15 05:17:19;;;;;;;9.32;4.68;;;11.00;99.90;;;;;;5079048;28;20052;-79
2022/04/15 05:19:45;;;;;;;7.55;5.07;;;11.00;99.90;;;;;;5082705;28;20043;-80
2022/04/15 05:22:11;;;;;;;11.20;5.25;;;11.00;99.90;;;;;;5085660;28;20683;-79
2022/04/15 05:24:38;;;;;;;11.00;5.15;;;11.00;99.90;;;;;;5078235;28;20032;-79
2022/04/15 05:27:04;;;;;;;13.88;6.38;;;11.10;99.90;;;;;;5072854;28;20089;-79
2022/04/15 05:29:30;;;;;;;10.88;5.65;;;11.10;99.90;;;;;;5073391;28;20073;-79
2022/04/15 05:31:56;;;;;;;8.13;5.93;;;11.10;99.90;;;;;;5079549;28;20031;-79
2022/04/15 05:34:22;;;;;;;9.60;6.03;;;11.10;99.90;;;;;;5092201;28;20054;-79
2022/04/15 05:36:48;;;;;;;9.60;5.70;;;11.20;99.90;;;;;;5087336;28;20110;-79
2022/04/15 05:39:13;;;;;;;7.93;5.45;;;11.20;99.90;;;;;;5086432;28;20024;-79
2022/04/15 05:41:39;;;;;;;8.30;5.47;;;11.20;99.90;;;;;;5078727;28;20735;-79
2022/04/15 05:44:07;;;;;;;9.25;5.53;;;11.20;99.90;;;;;;5075973;28;20020;-79
2022/04/15 05:46:33;;;;;;;14.48;5.93;;;11.20;99.90;;;;;;5078340;28;20032;-79
2022/04/15 05:48:58;;;;;;;8.10;5.35;;;11.20;99.90;;;;;;5093356;28;20024;-79
2022/04/15 05:51:24;;;;;;;7.15;6.13;;;11.20;99.90;;;;;;5083732;28;20510;-79
2022/04/15 05:53:50;;;;;;;12.00;6.38;;;11.20;99.90;;;;;;5079160;28;20498;-79
2022/04/15 05:56:16;;;;;;;10.27;6.20;;;11.20;99.90;;;;;;5077739;28;20059;-78
2022/04/15 05:58:41;;;;;;;9.32;5.78;;;11.20;99.90;;;;;;5063526;28;20020;-79
2022/04/15 06:01:09;;;;;;;9.48;6.22;;;11.20;99.90;;;;;;5077079;28;20520;-79
2022/04/15 06:03:35;;;;;;;11.05;6.78;;;11.20;99.90;;;;;;5080956;28;20039;-79
2022/04/15 06:06:02;;;;;;;8.02;6.13;;;11.20;99.90;;;;;;5082118;28;20031;-79
2022/04/15 06:08:28;;;;;;;9.73;6.07;;;11.30;99.90;;;;;;5076861;28;20031;-79
2022/04/15 06:10:54;;;;;;;11.82;6.00;;;11.30;99.90;;;;;;5077555;28;20050;-79
2022/04/15 06:13:22;;;;;;;7.97;6.07;;;11.40;99.90;;;;;;5078587;28;20028;-79
2022/04/15 06:15:53;;;;;;;10.32;5.55;;;11.50;99.90;;;;;;5083615;28;20067;-79
2022/04/15 06:18:23;;;;;;;9.98;6.68;;;11.40;99.90;;;;;;5087106;28;20036;-79
2022/04/15 06:20:50;;;;;;;6.90;5.50;;;11.50;99.90;;;;;;5086499;28;20066;-79
2022/04/15 06:23:17;;;;;;;8.77;5.85;;;11.60;99.90;;;;;;5073282;28;20023;-79
2022/04/15 06:25:43;;;;;;;9.52;5.30;;;11.80;99.90;;;;;;5058297;28;20063;-79
2022/04/15 06:28:10;;;;;;;9.80;5.82;;;11.80;99.90;;;;;;5076138;28;20024;-79
2022/04/15 06:30:36;;;;;;;11.85;6.25;;;11.90;99.90;;;;;;5085958;28;20505;-79
2022/04/15 06:33:05;;;;;;;7.95;6.35;;;12.10;99.90;;;;;;5085866;28;20543;-80
2022/04/15 06:35:32;;;;;;;10.48;6.68;;;12.00;99.90;;;;;;5087584;28;20036;-79
2022/04/15 06:37:58;;;;;;;8.95;5.65;;;12.10;99.90;;;;;;5083558;28;20028;-79
2022/04/15 06:40:24;;;;;;;10.05;6.63;;;12.30;99.90;;;;;;5084207;28;20055;-79
2022/04/15 06:42:49;;;;;;;10.27;6.28;;;12.60;99.90;;;;;;5073309;28;20033;-79
2022/04/15 06:45:15;;;;;;;9.95;6.63;;;13.20;99.90;;;;;;5080449;28;20090;-80
2022/04/15 06:47:41;;;;;;;8.63;5.45;;;13.40;99.90;;;;;;5074417;28;20035;-80
2022/04/15 06:50:07;;;;;;;8.35;5.55;;;13.70;99.90;;;;;;5079418;28;20501;-79
2022/04/15 06:52:33;;;;;;;8.50;6.05;;;14.30;99.90;;;;;;5081315;28;20528;-79
2022/04/15 06:54:58;;;;;;;9.25;5.70;;;14.50;99.90;;;;;;5065828;28;20094;-79
2022/04/15 06:57:24;;;;;;;11.40;6.13;;;15.10;99.90;;;;;;5067184;28;20115;-80
2022/04/15 06:59:50;;;;;;;10.52;5.78;;;15.70;99.90;;;;;;5072903;28;20024;-79
2022/04/15 07:02:16;;;;;;;7.00;4.78;;;16.20;99.90;;;;;;5075843;28;20516;-80
2022/04/15 07:04:42;;;;;;;7.15;5.15;;;16.60;99.90;;;;;;5075938;28;20097;-79
2022/04/15 07:07:07;;;;;;;9.55;6.00;;;16.70;99.90;;;;;;5080450;28;20107;-79
2022/04/15 07:09:33;;;;;;;10.63;6.38;;;15.20;99.90;;;;;;5066882;28;20112;-79
2022/04/15 07:11:59;;;;;;;10.68;6.40;;;15.10;99.90;;;;;;5061730;28;20031;-79
2022/04/15 07:14:24;;;;;;;8.60;6.32;;;15.60;99.90;;;;;;5068626;28;20033;-79
2022/04/15 07:16:50;;;;;;;7.82;5.35;;;16.20;99.90;;;;;;5079947;28;20028;-80
2022/04/15 07:19:16;;;;;;;9.88;5.85;;;16.20;99.90;;;;;;5063199;28;20104;-80
2022/04/15 07:21:43;;;;;;;11.27;5.88;;;15.60;99.90;;;;;;5068323;28;20088;-80
2022/04/15 07:24:09;;;;;;;9.75;5.68;;;15.60;99.90;;;;;;5073951;28;20032;-78
2022/04/15 07:26:34;;;;;;;8.85;6.20;;;15.60;99.90;;;;;;5066883;28;20066;-78
2022/04/15 07:29:01;;;;;;;7.00;5.80;;;16.00;99.90;;;;;;5069632;28;20047;-78
2022/04/15 07:31:27;;;;;;;7.80;5.80;;;16.20;99.90;;;;;;5080414;28;20040;-78
2022/04/15 07:33:53;;;;;;;10.48;6.80;;;16.00;99.90;;;;;;5064482;28;20068;-78
2022/04/15 07:36:42;;;;;;;11.30;6.53;;;15.30;99.90;;;;;;5056245;28;20486;-78
2022/04/15 07:39:10;;;;;;;12.18;6.82;;;15.40;99.90;;;;;;5067938;28;20322;-78
2022/04/15 07:41:37;;;;;;;11.20;6.45;;;15.80;99.90;;;;;;5072825;28;20108;-78
2022/04/15 07:44:04;;;;;;;10.32;6.15;;;16.40;99.90;;;;;;5067563;28;20028;-77
2022/04/15 07:46:30;;;;;;;7.53;5.68;;;16.30;99.90;;;;;;5072573;28;20217;-78
2022/04/15 07:48:56;;;;;;;9.63;6.35;;;16.10;99.90;;;;;;5072029;28;20410;-78
2022/04/15 07:51:21;;;;;;;9.65;5.97;;;16.10;99.90;;;;;;5081055;28;20035;-78
2022/04/15 07:53:47;;;;;;;8.65;5.25;;;16.30;99.90;;;;;;5071078;28;20029;-77
2022/04/15 07:56:13;;;;;;;6.82;5.47;;;17.20;99.90;;;;;;5063750;28;20175;-77
2022/04/15 07:58:39;;;;;;;9.48;5.80;;;16.80;99.90;;;;;;5063514;28;20049;-78
2022/04/15 08:01:06;;;;;;;10.15;5.30;;;16.70;99.90;;;;;;5065204;28;20036;-78
2022/04/15 08:03:33;;;;;;;7.15;5.90;;;16.80;99.90;;;;;;5070827;28;20029;-77
2022/04/15 08:05:58;;;;;;;6.78;5.15;;;16.80;99.90;;;;;;5066610;28;20028;-78
2022/04/15 08:08:24;;;;;;;10.02;6.10;;;17.30;99.90;;;;;;5060878;28;20395;-80
2022/04/15 08:10:53;;;;;;;8.98;5.18;;;16.70;99.90;;;;;;5071413;28;20066;-76
2022/04/15 08:13:19;;;;;;;10.07;5.50;;;16.70;99.90;;;;;;5068134;28;20281;-76
2022/04/15 08:15:45;;;;;;;12.40;6.65;;;16.50;99.90;;;;;;5085105;28;20055;-73
2022/04/15 08:18:11;;;;;;;8.77;5.22;;;16.80;99.90;;;;;;5076302;28;20078;-74
2022/04/15 08:20:37;;;;;;;11.40;6.50;;;17.60;99.90;;;;;;5066621;28;20032;-75
2022/04/15 08:23:09;;;;;;;9.73;5.65;;;17.30;99.90;;;;;;5073225;28;20434;-74
2022/04/15 08:25:36;;;;;;;;;;;17.50;99.90;;;;;;5068704;28;20067;-74
2022/04/15 08:28:03;;;;;;;9.27;6.05;;;17.20;99.90;;;;;;5063618;28;19932;-74
2022/04/15 08:30:30;;;;;;;10.02;6.35;;;17.10;99.90;;;;;;5074701;28;20040;-74
2022/04/15 08:32:57;;;;;;;7.22;6.50;;;16.70;99.90;;;;;;5074402;28;20115;-74
2022/04/15 08:35:23;;;;;;;14.02;7.35;;;17.40;99.90;;;;;;5072390;28;20044;-74
2022/04/15 08:37:49;;;;;;;8.48;5.97;;;18.60;99.90;;;;;;5081348;28;20114;-74
2022/04/15 08:40:15;;;;;;;7.78;6.28;;;19.00;99.90;;;;;;5071904;28;20029;-74
2022/04/15 08:42:42;;;;;;;12.85;6.47;;;18.60;99.90;;;;;;5066832;28;20055;-74
2022/04/15 08:45:08;;;;;;;9.10;6.30;;;18.80;99.90;;;;;;5062272;28;20029;-74
2022/04/15 08:47:36;;;;;;;10.10;7.05;;;18.60;99.90;;;;;;5059851;28;20036;-74
2022/04/15 08:50:03;;;;;;;12.90;7.22;;;19.20;99.90;;;;;;5068921;28;20039;-74
2022/04/15 08:52:29;;;;;;;9.38;7.78;;;19.90;99.90;;;;;;5080292;28;20047;-74
2022/04/15 08:54:55;;;;;;;10.05;8.13;;;20.10;99.90;;;;;;5062897;28;20178;-74
2022/04/15 08:57:22;;;;;;;10.95;7.72;;;19.80;99.90;;;;;;5062331;28;20033;-73
2022/04/15 08:59:47;;;;;;;9.95;7.78;;;20.00;99.90;;;;;;5064289;28;20510;-74
2022/04/15 09:02:37;;;;;;;10.50;8.35;;;20.10;99.90;;;;;;5057886;28;20048;-74
2022/04/15 09:05:05;;;;;;;12.40;8.18;;;20.40;99.90;;;;;;5066492;28;20120;-75
2022/04/15 09:07:31;;;;;;;9.40;7.47;;;20.10;99.90;;;;;;5078567;28;20063;-74
2022/04/15 09:09:59;;;;;;;12.00;8.13;;;20.00;99.90;;;;;;5075405;28;20035;-74
2022/04/15 09:12:28;;;;;;;8.20;7.38;;;19.60;99.90;;;;;;5074798;28;20506;-74
2022/04/15 09:15:16;;;;;;;9.68;7.80;;;19.70;99.90;;;;;;5066789;28;20044;-74
2022/04/15 09:17:52;;;;;;;11.85;8.10;;;20.00;99.90;;;;;;5070654;28;20024;-74
2022/04/15 09:20:19;;;;;;;8.63;7.10;;;19.80;99.90;;;;;;5054651;28;20082;-74
2022/04/15 09:22:46;;;;;;;11.52;7.43;;;19.60;99.90;;;;;;5072951;28;20028;-74
2022/04/15 09:25:13;;;;;;;10.57;7.75;;;19.20;99.90;;;;;;5061820;28;20013;-74
2022/04/15 09:27:39;;;;;;;8.90;6.72;;;18.70;99.90;;;;;;5063963;28;20072;-72
2022/04/15 09:30:06;;;;;;;8.98;7.00;;;19.70;99.90;;;;;;5075747;28;20063;-75
2022/04/15 09:32:32;;;;;;;10.25;6.90;;;19.60;99.90;;;;;;5072848;28;20127;-75
2022/04/15 09:35:06;;;;;;;10.05;7.20;;;19.60;99.90;;;;;;5064732;28;20108;-75
2022/04/15 09:37:38;;;;;;;10.68;7.22;;;20.40;99.90;;;;;;5072548;28;20077;-74
2022/04/15 09:40:14;;;;;;;8.38;6.90;;;20.20;99.90;;;;;;5066145;28;20033;-75
2022/04/15 09:42:54;;;;;;;7.03;5.95;;;20.60;99.90;;;;;;5070241;28;20028;-74
2022/04/15 09:45:23;;;;;;;9.77;6.45;;;20.50;99.40;;;;;;5067904;28;20028;-75
2022/04/15 09:47:57;;;;;;;8.35;6.32;;;20.00;99.90;;;;;;5070413;28;20032;-75
2022/04/15 09:50:26;;;;;;;8.20;6.25;;;19.80;99.90;;;;;;5067685;28;20063;-72
2022/04/15 09:52:52;;;;;;;9.02;7.03;;;19.00;99.90;;;;;;5072392;28;20558;-72
2022/04/15 09:55:20;;;;;;;9.82;7.05;;;19.10;99.90;;;;;;5066699;28;20051;-71
2022/04/15 09:57:47;;;;;;;9.68;7.45;;;19.30;99.90;;;;;;5067551;28;20574;-74
2022/04/15 10:00:14;;;;;;;8.80;6.45;;;19.20;99.90;;;;;;5078506;28;20074;-78
2022/04/15 10:02:42;;;;;;;8.05;6.53;;;19.60;99.90;;;;;;5078380;28;20127;-74
2022/04/15 10:05:08;;;;;;;5.93;5.32;;;19.60;99.90;;;;;;5076143;28;20024;-75
2022/04/15 10:07:35;;;;;;;6.93;5.45;;;19.50;99.90;;;;;;5067957;28;20032;-75
2022/04/15 10:10:02;;;;;;;7.95;5.90;;;19.40;99.90;;;;;;5068685;28;20421;-76
2022/04/15 10:12:29;;;;;;;5.68;5.13;;;19.40;99.90;;;;;;5078729;28;20040;-75
2022/04/15 10:14:55;;;;;;;8.70;5.40;;;19.20;99.90;;;;;;5070666;28;20028;-76
2022/04/15 10:17:23;;;;;;;5.95;5.03;;;18.70;99.90;;;;;;5070994;28;20034;-76
2022/04/15 10:19:49;;;;;;;8.40;5.65;;;19.00;99.90;;;;;;5083046;28;20036;-75
2022/04/15 10:22:16;;;;;;;10.35;6.53;;;18.80;99.90;;;;;;5084038;28;20082;-76
2022/04/15 10:24:42;;;;;;;8.32;5.82;;;17.80;99.90;;;;;;5067105;28;20388;-75
2022/04/15 10:27:11;;;;;;;9.82;5.45;;;18.10;99.90;;;;;;5067221;28;20551;-75
2022/04/15 10:29:37;;;;;;;6.38;4.80;;;18.60;99.90;;;;;;5060657;28;20102;-75
2022/04/15 10:32:13;;;;;;;7.22;4.78;;;18.90;99.90;;;;;;5073537;28;20035;-75
2022/04/15 10:34:47;;;;;;;6.93;4.75;;;19.00;99.90;;;;;;5071043;28;20059;-78
2022/04/15 10:37:13;;;;;;;5.88;4.30;;;19.10;99.90;;;;;;5072126;28;20043;-75
2022/04/15 10:39:47;;;;;;;5.22;3.97;;;19.20;99.90;;;;;;5079411;28;20039;-75
2022/04/15 10:42:20;;;;;;;6.80;4.63;;;18.90;99.90;;;;;;5069737;28;20087;-75
2022/04/15 10:44:47;;;;;;;6.00;4.93;;;18.90;99.90;;;;;;5071146;28;20028;-76
2022/04/15 10:47:19;;;;;;;6.57;4.57;;;18.80;99.90;;;;;;5073296;28;20094;-76
2022/04/15 10:50:06;;;;;;;5.70;4.70;;;18.80;99.90;;;;;;5063951;28;20032;-75
2022/04/15 10:52:34;;;;;;;4.32;3.92;;;19.10;99.90;;;;;;5060751;28;20052;-75
2022/04/15 10:55:02;;;;;;;5.57;4.53;;;19.30;99.90;;;;;;5065325;28;20049;-74
2022/04/15 10:57:43;;;;;;;5.25;4.25;;;19.50;99.90;;;;;;5060705;28;20029;-75
2022/04/15 11:03:25;;;;;;;5.13;3.70;;;19.20;99.90;;;;;;5067601;28;20109;-75
2022/04/15 11:05:54;;;;;;;5.65;4.13;;;19.70;99.90;;;;;;5070612;28;20036;-75
2022/04/15 11:08:24;;;;;;;7.45;4.35;;;19.40;99.90;;;;;;5072931;28;20045;-75
2022/04/15 11:10:58;;;;;;;5.53;4.40;;;19.70;99.90;;;;;;5080226;28;20516;-74
2022/04/15 11:13:24;;;;;;;5.82;4.53;;;19.60;99.90;;;;;;5077369;28;20035;-74
2022/04/15 11:16:11;;;;;;;7.35;4.78;;;19.70;99.90;;;;;;5062183;28;20041;-74
2022/04/15 11:18:43;;;;;;;7.13;4.45;;;19.80;99.90;;;;;;5060194;28;20029;-75
2022/04/15 11:21:22;;;;;;;5.63;4.03;;;19.80;99.90;;;;;;5069484;28;20086;-74
2022/04/15 11:23:52;;;;;;;6.90;4.15;;;20.10;99.90;;;;;;5063184;28;20016;-74
2022/04/15 11:26:20;;;;;;;5.70;4.10;;;19.90;99.90;;;;;;5069556;28;20210;-74
2022/04/15 11:28:47;;;;;;;4.63;4.18;;;19.90;99.90;;;;;;5080687;28;20037;-74
2022/04/15 11:31:23;;;;;;;5.90;4.20;;;20.00;99.90;;;;;;5075134;28;20028;-74
2022/04/15 11:33:49;;;;;;;7.38;4.47;;;19.90;99.90;;;;;;5072382;28;20040;-74
2022/04/15 11:36:18;;;;;;;7.90;3.97;;;19.70;99.90;;;;;;5071762;28;20064;-74
2022/04/15 11:38:45;;;;;;;6.80;4.50;;;19.80;99.90;;;;;;5066827;28;20069;-72
2022/04/15 11:41:24;;;;;;;4.47;3.50;;;19.70;99.90;;;;;;5073014;28;20381;-72
2022/04/15 11:44:04;;;;;;;5.03;4.20;;;19.70;99.90;;;;;;5058835;28;20039;-72
2022/04/15 11:46:35;;;;;;;4.07;3.28;;;19.50;99.90;;;;;;5062563;28;20024;-73
2022/04/15 11:49:15;;;;;;;7.28;4.35;;;19.70;99.90;;;;;;5078660;28;20029;-73
2022/04/15 11:52:03;;;;;;;6.32;4.43;;;19.60;99.90;;;;;;5071895;28;20056;-74
2022/04/15 11:54:33;;;;;;;7.40;4.80;;;19.50;99.90;;;;;;5064024;28;20040;-73
2022/04/15 11:57:03;;;;;;;;;;;19.60;99.90;;;;;;5066240;28;20044;-73
2022/04/15 11:59:36;;;;;;;4.57;4.15;;;19.80;99.90;;;;;;5062698;28;19908;-75
2022/04/15 12:02:02;;;;;;;6.35;5.05;;;19.70;99.90;;;;;;5072195;28;20046;-77
2022/04/15 12:04:28;;;;;;;10.30;5.47;;;19.70;99.90;;;;;;5077078;28;20115;-73
2022/04/15 12:06:53;;;;;;;6.65;4.90;;;19.50;99.90;;;;;;5070327;28;20573;-71
2022/04/15 12:09:19;;;;;;;5.22;4.57;;;19.80;99.90;;;;;;5070782;28;20521;-72
2022/04/15 12:11:45;;;;;;;6.88;4.43;;;20.00;99.90;;;;;;5066210;28;20028;-72
2022/04/15 12:14:12;;;;;;;6.53;4.25;;;19.90;99.90;;;;;;5065584;28;20024;-72
2022/04/15 12:16:39;;;;;;;6.57;4.38;;;20.00;99.90;;;;;;5071580;28;20044;-72
2022/04/15 12:19:06;;;;;;;6.13;4.07;;;19.80;99.90;;;;;;5076766;28;20025;-74
2022/04/15 12:21:33;;;;;;;5.75;4.82;;;19.90;99.90;;;;;;5055102;28;20033;-73
2022/04/15 12:24:05;;;;;;;7.35;4.97;;;19.80;99.90;;;;;;5065625;28;20024;-73
2022/04/15 12:26:53;;;;;;;5.22;4.38;;;19.60;99.90;;;;;;5064952;28;20025;-74
2022/04/15 12:32:24;;;;;;;5.57;4.18;;;20.10;99.90;;;;;;5078282;28;20062;-74
2022/04/15 12:34:54;;;;;;;7.75;4.40;;;20.20;99.90;;;;;;5067977;28;20028;-74
2022/04/15 12:37:47;;;;;;;7.82;4.18;;;20.00;99.90;;;;;;5057884;28;20057;-73
2022/04/15 12:40:15;;;;;;;5.43;4.70;;;19.80;99.90;;;;;;5076855;28;20025;-73
2022/04/15 12:42:43;;;;;;;9.15;5.05;;;20.20;99.90;;;;;;5072844;28;20058;-73
2022/04/15 12:45:17;;;;;;;6.43;4.40;;;20.30;99.90;;;;;;5076538;28;20028;-73
2022/04/15 12:47:47;;;;;;;7.03;5.10;;;20.10;99.90;;;;;;5071671;28;20046;-73
2022/04/15 12:50:20;;;;;;;8.25;5.15;;;19.90;99.90;;;;;;5080515;28;20028;-74
2022/04/15 12:52:48;;;;;;;5.93;4.32;;;19.90;99.90;;;;;;5058964;28;20529;-74
2022/04/15 12:55:27;;;;;;;6.15;4.43;;;20.10;99.90;;;;;;5068483;28;20530;-73